sensor_id;sensor_type;location;lat;lon;timestamp;pressure;altitude;pressure_sealevel;temperature;humidity
70544;BME280;58097;48.364;-1.224;2023-02-02T00:01:49;101204.22;;;7.20;80.79
70544;BME280;58097;48.364;-1.224;2023-02-02T00:04:20;101209.81;;;7.19;80.66
70544;BME280;58097;48.364;-1.224;2023-02-02T00:06:46;101205.53;;;7.14;80.55
70544;BME280;58097;48.364;-1.224;2023-02-02T00:09:14;101207.63;;;7.11;80.62
70544;BME280;58097;48.364;-1.224;2023-02-02T00:11:40;101207.72;;;7.09;80.58
70544;BME280;58097;48.364;-1.224;2023-02-02T00:14:06;101197.06;;;7.05;80.66
70544;BME280;58097;48.364;-1.224;2023-02-02T00:16:42;101188.28;;;7.00;80.70
70544;BME280;58097;48.364;-1.224;2023-02-02T00:19:34;101192.13;;;6.97;80.58
70544;BME280;58097;48.364;-1.224;2023-02-02T00:21:59;101210.47;;;6.97;80.56
70544;BME280;58097;48.364;-1.224;2023-02-02T00:24:25;101213.50;;;6.92;80.72
70544;BME280;58097;48.364;-1.224;2023-02-02T00:26:56;101213.50;;;6.92;80.60
70544;BME280;58097;48.364;-1.224;2023-02-02T00:29:28;101221.97;;;6.89;80.46
70544;BME280;58097;48.364;-1.224;2023-02-02T00:31:53;101216.59;;;6.88;80.55
70544;BME280;58097;48.364;-1.224;2023-02-02T00:34:20;101220.22;;;6.88;80.64
70544;BME280;58097;48.364;-1.224;2023-02-02T00:36:46;101217.47;;;6.88;80.61
70544;BME280;58097;48.364;-1.224;2023-02-02T00:39:15;101218.34;;;6.89;80.94
70544;BME280;58097;48.364;-1.224;2023-02-02T00:41:41;101206.25;;;6.91;80.86
70544;BME280;58097;48.364;-1.224;2023-02-02T00:44:06;101201.53;;;6.93;81.03
70544;BME280;58097;48.364;-1.224;2023-02-02T00:46:50;101185.03;;;6.93;80.92
70544;BME280;58097;48.364;-1.224;2023-02-02T00:49:15;101188.59;;;6.95;80.84
70544;BME280;58097;48.364;-1.224;2023-02-02T00:51:41;101185.91;;;6.94;80.71
70544;BME280;58097;48.364;-1.224;2023-02-02T00:54:06;101192.34;;;6.94;80.77
70544;BME280;58097;48.364;-1.224;2023-02-02T00:56:32;101179.47;;;6.95;80.78
70544;BME280;58097;48.364;-1.224;2023-02-02T00:58:57;101185.84;;;6.95;80.84
70544;BME280;58097;48.364;-1.224;2023-02-02T01:01:23;101196.84;;;6.95;81.08
70544;BME280;58097;48.364;-1.224;2023-02-02T01:03:49;101205.84;;;6.97;81.07
70544;BME280;58097;48.364;-1.224;2023-02-02T01:06:15;101208.38;;;7.00;80.99
70544;BME280;58097;48.364;-1.224;2023-02-02T01:08:41;101203.44;;;7.05;81.10
70544;BME280;58097;48.364;-1.224;2023-02-02T01:11:07;101197.72;;;7.08;80.75
70544;BME280;58097;48.364;-1.224;2023-02-02T01:13:32;101194.97;;;7.08;80.92
70544;BME280;58097;48.364;-1.224;2023-02-02T01:15:59;101189.25;;;7.11;80.82
70544;BME280;58097;48.364;-1.224;2023-02-02T01:18:25;101180.25;;;7.09;80.56
70544;BME280;58097;48.364;-1.224;2023-02-02T01:20:58;101173.88;;;7.09;80.42
70544;BME280;58097;48.364;-1.224;2023-02-02T01:23:23;101185.75;;;7.09;80.48
70544;BME280;58097;48.364;-1.224;2023-02-02T01:25:56;101186.72;;;7.08;80.36
70544;BME280;58097;48.364;-1.224;2023-02-02T01:28:22;101190.47;;;7.07;80.51
70544;BME280;58097;48.364;-1.224;2023-02-02T01:30:48;101191.34;;;7.08;80.56
70544;BME280;58097;48.364;-1.224;2023-02-02T01:33:14;101180.34;;;7.08;80.46
70544;BME280;58097;48.364;-1.224;2023-02-02T01:36:03;101192.22;;;7.08;80.61
70544;BME280;58097;48.364;-1.224;2023-02-02T01:38:29;101200.47;;;7.08;80.47
70544;BME280;58097;48.364;-1.224;2023-02-02T01:40:55;101192.66;;;7.15;80.54
70544;BME280;58097;48.364;-1.224;2023-02-02T01:45:49;101193.44;;;7.17;80.35
70544;BME280;58097;48.364;-1.224;2023-02-02T01:48:15;101192.66;;;7.15;80.21
70544;BME280;58097;48.364;-1.224;2023-02-02T01:50:42;101189.81;;;7.17;80.34
70544;BME280;58097;48.364;-1.224;2023-02-02T01:53:08;101190.69;;;7.17;80.06
70544;BME280;58097;48.364;-1.224;2023-02-02T01:55:34;101189.69;;;7.18;80.12
70544;BME280;58097;48.364;-1.224;2023-02-02T01:58:19;101193.56;;;7.15;79.88
70544;BME280;58097;48.364;-1.224;2023-02-02T02:00:46;101198.28;;;7.13;79.92
70544;BME280;58097;48.364;-1.224;2023-02-02T02:03:15;101208.28;;;7.14;80.06
70544;BME280;58097;48.364;-1.224;2023-02-02T02:05:44;101207.19;;;7.17;79.99
70544;BME280;58097;48.364;-1.224;2023-02-02T02:08:19;101209.81;;;7.19;80.19
70544;BME280;58097;48.364;-1.224;2023-02-02T02:10:45;101206.09;;;7.20;80.21
70544;BME280;58097;48.364;-1.224;2023-02-02T02:13:11;101206.84;;;7.22;80.08
70544;BME280;58097;48.364;-1.224;2023-02-02T02:15:43;101211.38;;;7.23;80.15
70544;BME280;58097;48.364;-1.224;2023-02-02T02:18:41;101211.38;;;7.23;79.83
70544;BME280;58097;48.364;-1.224;2023-02-02T02:27:06;101201.47;;;7.20;79.85
70544;BME280;58097;48.364;-1.224;2023-02-02T02:32:24;101196.06;;;7.19;79.99
70544;BME280;58097;48.364;-1.224;2023-02-02T02:35:22;101181.44;;;7.18;79.78
70544;BME280;58097;48.364;-1.224;2023-02-02T02:38:20;101179.59;;;7.19;79.93
70544;BME280;58097;48.364;-1.224;2023-02-02T02:40:46;101174.09;;;7.19;79.98
70544;BME280;58097;48.364;-1.224;2023-02-02T02:45:43;101181.34;;;7.20;79.81
70544;BME280;58097;48.364;-1.224;2023-02-02T02:48:09;101176.84;;;7.19;79.83
70544;BME280;58097;48.364;-1.224;2023-02-02T02:50:35;101187.84;;;7.19;79.89
70544;BME280;58097;48.364;-1.224;2023-02-02T02:53:08;101185.84;;;7.21;79.79
70544;BME280;58097;48.364;-1.224;2023-02-02T03:01:53;101182.09;;;7.22;79.84
70544;BME280;58097;48.364;-1.224;2023-02-02T03:04:32;101188.59;;;7.21;79.74
70544;BME280;58097;48.364;-1.224;2023-02-02T03:07:04;101183.78;;;7.24;79.77
70544;BME280;58097;48.364;-1.224;2023-02-02T03:09:35;101181.94;;;7.25;79.76
70544;BME280;58097;48.364;-1.224;2023-02-02T03:12:04;101188.50;;;7.22;79.68
70544;BME280;58097;48.364;-1.224;2023-02-02T03:14:34;101182.09;;;7.22;79.55
70544;BME280;58097;48.364;-1.224;2023-02-02T03:16:59;101178.38;;;7.23;79.68
70544;BME280;58097;48.364;-1.224;2023-02-02T03:19:25;101176.59;;;7.22;79.49
70544;BME280;58097;48.364;-1.224;2023-02-02T03:21:50;101174.75;;;7.22;79.39
70544;BME280;58097;48.364;-1.224;2023-02-02T03:24:15;101174.97;;;7.19;79.24
70544;BME280;58097;48.364;-1.224;2023-02-02T03:26:40;101173.09;;;7.20;79.27
70544;BME280;58097;48.364;-1.224;2023-02-02T03:29:06;101175.84;;;7.20;79.54
70544;BME280;58097;48.364;-1.224;2023-02-02T03:31:31;101182.34;;;7.19;79.53
70544;BME280;58097;48.364;-1.224;2023-02-02T03:33:57;101188.72;;;7.19;79.48
70544;BME280;58097;48.364;-1.224;2023-02-02T03:36:22;101186.94;;;7.18;79.38
70544;BME280;58097;48.364;-1.224;2023-02-02T03:38:47;101189.81;;;7.17;79.27
70544;BME280;58097;48.364;-1.224;2023-02-02T03:41:13;101189.81;;;7.17;79.37
70544;BME280;58097;48.364;-1.224;2023-02-02T03:43:39;101192.56;;;7.17;79.46
70544;BME280;58097;48.364;-1.224;2023-02-02T03:46:05;101191.78;;;7.14;79.32
70544;BME280;58097;48.364;-1.224;2023-02-02T03:48:35;101191.69;;;7.16;79.62
70544;BME280;58097;48.364;-1.224;2023-02-02T03:51:08;101189.69;;;7.18;79.50
70544;BME280;58097;48.364;-1.224;2023-02-02T03:53:33;101186.94;;;7.18;79.33
70544;BME280;58097;48.364;-1.224;2023-02-02T03:55:58;101186.94;;;7.18;79.13
70544;BME280;58097;48.364;-1.224;2023-02-02T03:58:24;101186.28;;;7.14;79.24
70544;BME280;58097;48.364;-1.224;2023-02-02T04:00:49;101184.41;;;7.15;79.29
70544;BME280;58097;48.364;-1.224;2023-02-02T04:03:15;101193.56;;;7.15;79.36
70544;BME280;58097;48.364;-1.224;2023-02-02T04:05:40;101186.19;;;7.16;79.43
70544;BME280;58097;48.364;-1.224;2023-02-02T04:08:05;101197.28;;;7.14;79.42
70544;BME280;58097;48.364;-1.224;2023-02-02T04:10:31;101185.31;;;7.15;79.49
70544;BME280;58097;48.364;-1.224;2023-02-02T04:12:56;101186.06;;;7.18;79.49
70544;BME280;58097;48.364;-1.224;2023-02-02T04:15:21;101186.94;;;7.18;79.58
70544;BME280;58097;48.364;-1.224;2023-02-02T04:17:47;101188.59;;;7.21;79.61
70544;BME280;58097;48.364;-1.224;2023-02-02T04:20:12;101184.97;;;7.20;79.48
70544;BME280;58097;48.364;-1.224;2023-02-02T04:22:37;101196.75;;;7.22;79.25
70544;BME280;58097;48.364;-1.224;2023-02-02T04:25:03;101192.34;;;7.20;79.46
70544;BME280;58097;48.364;-1.224;2023-02-02T04:27:28;101200.47;;;7.21;79.55
70544;BME280;58097;48.364;-1.224;2023-02-02T04:29:56;101201.56;;;7.19;79.44
70544;BME280;58097;48.364;-1.224;2023-02-02T04:32:22;101204.31;;;7.19;79.38
70544;BME280;58097;48.364;-1.224;2023-02-02T04:34:47;101207.06;;;7.19;79.51
70544;BME280;58097;48.364;-1.224;2023-02-02T04:37:12;101202.34;;;7.21;79.51
70544;BME280;58097;48.364;-1.224;2023-02-02T04:39:38;101203.22;;;7.21;79.64
70544;BME280;58097;48.364;-1.224;2023-02-02T04:42:03;101205.00;;;7.22;79.51
70544;BME280;58097;48.364;-1.224;2023-02-02T04:44:28;101203.34;;;7.20;79.45
70544;BME280;58097;48.364;-1.224;2023-02-02T04:46:54;101204.22;;;7.20;79.43
70544;BME280;58097;48.364;-1.224;2023-02-02T04:49:19;101208.72;;;7.21;79.50
70544;BME280;58097;48.364;-1.224;2023-02-02T04:51:46;101208.72;;;7.21;79.56
70544;BME280;58097;48.364;-1.224;2023-02-02T04:54:12;101209.59;;;7.22;79.38
70544;BME280;58097;48.364;-1.224;2023-02-02T04:56:37;101208.72;;;7.21;79.26
70544;BME280;58097;48.364;-1.224;2023-02-02T04:59:02;101203.22;;;7.21;79.50
70544;BME280;58097;48.364;-1.224;2023-02-02T05:01:28;101205.09;;;7.21;79.43
70544;BME280;58097;48.364;-1.224;2023-02-02T05:03:55;101205.22;;;7.19;79.31
70544;BME280;58097;48.364;-1.224;2023-02-02T05:06:21;101200.59;;;7.20;79.40
70544;BME280;58097;48.364;-1.224;2023-02-02T05:08:46;101207.97;;;7.19;79.36
70544;BME280;58097;48.364;-1.224;2023-02-02T05:11:16;101206.09;;;7.20;79.30
70544;BME280;58097;48.364;-1.224;2023-02-02T05:13:50;101208.84;;;7.20;79.48
70544;BME280;58097;48.364;-1.224;2023-02-02T05:16:16;101210.81;;;7.18;79.52
70544;BME280;58097;48.364;-1.224;2023-02-02T05:18:42;101201.47;;;7.20;79.55
70544;BME280;58097;48.364;-1.224;2023-02-02T05:21:08;101198.59;;;7.22;79.53
70544;BME280;58097;48.364;-1.224;2023-02-02T05:23:33;101205.22;;;7.19;79.54
70544;BME280;58097;48.364;-1.224;2023-02-02T05:25:59;101204.22;;;7.20;79.60
70544;BME280;58097;48.364;-1.224;2023-02-02T05:28:24;101214.13;;;7.23;79.69
70544;BME280;58097;48.364;-1.224;2023-02-02T05:30:50;101209.41;;;7.25;79.60
70544;BME280;58097;48.364;-1.224;2023-02-02T05:33:16;101204.91;;;7.24;79.47
70544;BME280;58097;48.364;-1.224;2023-02-02T05:35:45;101204.09;;;7.22;79.36
70544;BME280;58097;48.364;-1.224;2023-02-02T05:38:11;101209.72;;;7.20;79.32
70544;BME280;58097;48.364;-1.224;2023-02-02T05:40:36;101205.22;;;7.19;79.37
70544;BME280;58097;48.364;-1.224;2023-02-02T05:43:02;101205.31;;;7.18;79.51
70544;BME280;58097;48.364;-1.224;2023-02-02T05:45:27;101191.56;;;7.18;79.59
70544;BME280;58097;48.364;-1.224;2023-02-02T05:47:53;101198.81;;;7.19;79.55
70544;BME280;58097;48.364;-1.224;2023-02-02T05:50:19;101203.56;;;7.17;79.71
70544;BME280;58097;48.364;-1.224;2023-02-02T05:52:45;101201.69;;;7.17;79.60
70544;BME280;58097;48.364;-1.224;2023-02-02T05:55:11;101215.31;;;7.19;79.61
70544;BME280;58097;48.364;-1.224;2023-02-02T05:57:37;101218.06;;;7.19;79.69
70544;BME280;58097;48.364;-1.224;2023-02-02T06:00:03;101222.59;;;7.20;79.63
70544;BME280;58097;48.364;-1.224;2023-02-02T06:02:28;101231.59;;;7.22;79.70
70544;BME280;58097;48.364;-1.224;2023-02-02T06:04:53;101233.47;;;7.21;79.80
70544;BME280;58097;48.364;-1.224;2023-02-02T06:07:19;101227.97;;;7.21;79.79
70544;BME280;58097;48.364;-1.224;2023-02-02T06:09:44;101226.91;;;7.24;79.55
70544;BME280;58097;48.364;-1.224;2023-02-02T06:12:09;101234.28;;;7.23;79.53
70544;BME280;58097;48.364;-1.224;2023-02-02T06:14:35;101245.28;;;7.23;79.54
70544;BME280;58097;48.364;-1.224;2023-02-02T06:17:00;101246.16;;;7.24;79.55
70544;BME280;58097;48.364;-1.224;2023-02-02T06:19:26;101251.72;;;7.22;79.64
70544;BME280;58097;48.364;-1.224;2023-02-02T06:21:51;101254.47;;;7.22;79.48
70544;BME280;58097;48.364;-1.224;2023-02-02T06:24:16;101257.16;;;7.24;79.49
70544;BME280;58097;48.364;-1.224;2023-02-02T06:26:42;101256.28;;;7.23;79.51
70544;BME280;58097;48.364;-1.224;2023-02-02T06:29:11;101254.41;;;7.24;79.43
70544;BME280;58097;48.364;-1.224;2023-02-02T06:31:36;101255.34;;;7.23;79.52
70544;BME280;58097;48.364;-1.224;2023-02-02T06:34:02;101258.09;;;7.23;79.54
70544;BME280;58097;48.364;-1.224;2023-02-02T06:36:27;101249.88;;;7.23;79.63
70544;BME280;58097;48.364;-1.224;2023-02-02T06:38:54;101258.91;;;7.25;79.55
70544;BME280;58097;48.364;-1.224;2023-02-02T06:41:20;101256.28;;;7.23;79.39
70544;BME280;58097;48.364;-1.224;2023-02-02T06:43:46;101265.47;;;7.22;79.56
70544;BME280;58097;48.364;-1.224;2023-02-02T06:46:12;101262.66;;;7.24;79.56
70544;BME280;58097;48.364;-1.224;2023-02-02T06:48:38;101265.47;;;7.22;79.57
70544;BME280;58097;48.364;-1.224;2023-02-02T06:51:03;101268.22;;;7.22;79.62
70544;BME280;58097;48.364;-1.224;2023-02-02T06:53:30;101276.47;;;7.22;79.62
70544;BME280;58097;48.364;-1.224;2023-02-02T06:55:57;101280.91;;;7.25;79.53
70544;BME280;58097;48.364;-1.224;2023-02-02T06:58:22;101267.34;;;7.22;79.56
70544;BME280;58097;48.364;-1.224;2023-02-02T07:00:48;101274.94;;;7.18;79.55
70544;BME280;58097;48.364;-1.224;2023-02-02T07:03:14;101268.78;;;7.14;79.95
70544;BME280;58097;48.364;-1.224;2023-02-02T07:05:40;101267.78;;;7.15;79.91
70544;BME280;58097;48.364;-1.224;2023-02-02T07:08:05;101267.47;;;7.20;80.02
70544;BME280;58097;48.364;-1.224;2023-02-02T07:10:30;101263.81;;;7.20;80.02
70544;BME280;58097;48.364;-1.224;2023-02-02T07:12:56;101270.09;;;7.22;80.16
70544;BME280;58097;48.364;-1.224;2023-02-02T07:15:21;101275.59;;;7.22;80.21
70544;BME280;58097;48.364;-1.224;2023-02-02T07:17:47;101268.94;;;7.26;80.16
70544;BME280;58097;48.364;-1.224;2023-02-02T07:20:12;101272.44;;;7.28;80.16
70544;BME280;58097;48.364;-1.224;2023-02-02T07:22:38;101270.56;;;7.28;80.10
70544;BME280;58097;48.364;-1.224;2023-02-02T07:25:05;101284.44;;;7.27;80.17
70544;BME280;58097;48.364;-1.224;2023-02-02T07:27:30;101287.19;;;7.27;80.07
70544;BME280;58097;48.364;-1.224;2023-02-02T07:29:57;101292.56;;;7.28;80.10
70544;BME280;58097;48.364;-1.224;2023-02-02T07:32:22;101298.19;;;7.27;80.02
70544;BME280;58097;48.364;-1.224;2023-02-02T07:34:48;101299.16;;;7.26;80.39
70544;BME280;58097;48.364;-1.224;2023-02-02T07:37:13;101303.69;;;7.27;80.43
70544;BME280;58097;48.364;-1.224;2023-02-02T07:39:38;101303.47;;;7.30;80.52
70544;BME280;58097;48.364;-1.224;2023-02-02T07:42:04;101301.59;;;7.30;80.57
70544;BME280;58097;48.364;-1.224;2023-02-02T07:44:29;101296.88;;;7.32;80.62
70544;BME280;58097;48.364;-1.224;2023-02-02T07:46:55;101308.75;;;7.33;80.64
70544;BME280;58097;48.364;-1.224;2023-02-02T07:49:20;101308.75;;;7.33;80.86
70544;BME280;58097;48.364;-1.224;2023-02-02T07:51:46;101304.25;;;7.32;80.61
70544;BME280;58097;48.364;-1.224;2023-02-02T07:54:13;101306.22;;;7.30;80.64
70544;BME280;58097;48.364;-1.224;2023-02-02T07:56:39;101309.06;;;7.28;80.57
70544;BME280;58097;48.364;-1.224;2023-02-02T07:59:05;101304.56;;;7.27;80.77
70544;BME280;58097;48.364;-1.224;2023-02-02T08:01:30;101303.78;;;7.25;81.10
70544;BME280;58097;48.364;-1.224;2023-02-02T08:03:57;101309.19;;;7.27;81.02
70544;BME280;58097;48.364;-1.224;2023-02-02T08:06:30;101313.47;;;7.31;80.73
70544;BME280;58097;48.364;-1.224;2023-02-02T08:08:57;101318.00;;;7.32;80.88
70544;BME280;58097;48.364;-1.224;2023-02-02T08:11:24;101315.91;;;7.35;80.87
70544;BME280;58097;48.364;-1.224;2023-02-02T08:13:55;101315.13;;;7.33;81.07
70544;BME280;58097;48.364;-1.224;2023-02-02T08:16:24;101324.25;;;7.34;81.12
70544;BME280;58097;48.364;-1.224;2023-02-02T08:18:50;101318.97;;;7.31;80.92
70544;BME280;58097;48.364;-1.224;2023-02-02T08:21:16;101324.25;;;7.34;80.89
70544;BME280;58097;48.364;-1.224;2023-02-02T08:23:41;101333.41;;;7.34;80.85
70544;BME280;58097;48.364;-1.224;2023-02-02T08:26:17;101332.31;;;7.37;80.93
70544;BME280;58097;48.364;-1.224;2023-02-02T08:28:44;101331.19;;;7.39;81.02
70544;BME280;58097;48.364;-1.224;2023-02-02T08:31:16;101324.72;;;7.40;81.16
70544;BME280;58097;48.364;-1.224;2023-02-02T08:33:42;101330.00;;;7.43;81.07
70544;BME280;58097;48.364;-1.224;2023-02-02T08:36:12;101333.41;;;7.47;81.23
70544;BME280;58097;48.364;-1.224;2023-02-02T08:38:38;101332.19;;;7.51;81.04
70544;BME280;58097;48.364;-1.224;2023-02-02T08:41:05;101344.31;;;7.49;81.18
70544;BME280;58097;48.364;-1.224;2023-02-02T08:43:31;101346.75;;;7.53;80.95
70544;BME280;58097;48.364;-1.224;2023-02-02T08:45:56;101351.28;;;7.54;80.92
70544;BME280;58097;48.364;-1.224;2023-02-02T08:48:22;101353.03;;;7.55;80.75
70544;BME280;58097;48.364;-1.224;2023-02-02T08:50:52;101360.31;;;7.56;80.78
70544;BME280;58097;48.364;-1.224;2023-02-02T08:53:18;101364.94;;;7.56;80.84
70544;BME280;58097;48.364;-1.224;2023-02-02T08:55:43;101363.94;;;7.57;80.99
70544;BME280;58097;48.364;-1.224;2023-02-02T08:58:08;101368.44;;;7.58;81.21
70544;BME280;58097;48.364;-1.224;2023-02-02T09:00:34;101359.09;;;7.60;81.41
70544;BME280;58097;48.364;-1.224;2023-02-02T09:02:59;101365.16;;;7.65;81.42
70544;BME280;58097;48.364;-1.224;2023-02-02T09:05:25;101369.34;;;7.71;81.63
70544;BME280;58097;48.364;-1.224;2023-02-02T09:07:50;101364.72;;;7.71;81.67
70544;BME280;58097;48.364;-1.224;2023-02-02T09:10:15;101373.53;;;7.76;81.59
70544;BME280;58097;48.364;-1.224;2023-02-02T09:12:41;101374.19;;;7.80;81.72
70544;BME280;58097;48.364;-1.224;2023-02-02T09:15:06;101370.25;;;7.84;81.64
70544;BME280;58097;48.364;-1.224;2023-02-02T09:17:32;101373.78;;;7.86;81.67
70544;BME280;58097;48.364;-1.224;2023-02-02T09:19:57;101382.59;;;7.91;81.73
70544;BME280;58097;48.364;-1.224;2023-02-02T09:22:22;101390.75;;;7.93;81.80
70544;BME280;58097;48.364;-1.224;2023-02-02T09:24:48;101392.28;;;7.97;81.77
70544;BME280;58097;48.364;-1.224;2023-02-02T09:27:13;101400.22;;;8.01;81.81
70544;BME280;58097;48.364;-1.224;2023-02-02T09:29:38;101409.13;;;8.05;81.70
70544;BME280;58097;48.364;-1.224;2023-02-02T09:32:04;101406.97;;;8.10;81.62
70544;BME280;58097;48.364;-1.224;2023-02-02T09:34:29;101414.78;;;8.16;81.76
70544;BME280;58097;48.364;-1.224;2023-02-02T09:36:55;101421.06;;;8.18;81.75
70544;BME280;58097;48.364;-1.224;2023-02-02T09:39:20;101427.09;;;8.23;81.62
70544;BME280;58097;48.364;-1.224;2023-02-02T09:44:26;101434.69;;;8.32;81.17
70544;BME280;58097;48.364;-1.224;2023-02-02T09:52:43;101434.81;;;8.31;82.18
70544;BME280;58097;48.364;-1.224;2023-02-02T09:57:52;101437.97;;;8.39;82.08
70544;BME280;58097;48.364;-1.224;2023-02-02T10:00:30;101426.72;;;8.42;82.41
70544;BME280;58097;48.364;-1.224;2023-02-02T10:03:05;101430.78;;;8.49;82.49
70544;BME280;58097;48.364;-1.224;2023-02-02T10:05:49;101434.09;;;8.54;82.40
70544;BME280;58097;48.364;-1.224;2023-02-02T10:08:24;101427.22;;;8.60;82.34
70544;BME280;58097;48.364;-1.224;2023-02-02T10:10:53;101427.00;;;8.63;81.95
70544;BME280;58097;48.364;-1.224;2023-02-02T10:13:24;101431.28;;;8.67;82.11
70544;BME280;58097;48.364;-1.224;2023-02-02T10:16:03;101427.66;;;8.79;82.51
70544;BME280;58097;48.364;-1.224;2023-02-02T10:18:41;101430.47;;;9.03;82.98
70544;BME280;58097;48.364;-1.224;2023-02-02T10:21:11;101428.06;;;9.22;82.48
70544;BME280;58097;48.364;-1.224;2023-02-02T10:23:42;101433.03;;;9.30;81.57
70544;BME280;58097;48.364;-1.224;2023-02-02T10:31:35;101428.31;;;9.19;80.20
70544;BME280;58097;48.364;-1.224;2023-02-02T10:34:12;101441.69;;;9.13;80.22
70544;BME280;58097;48.364;-1.224;2023-02-02T10:37:07;101448.97;;;9.14;80.66
70544;BME280;58097;48.364;-1.224;2023-02-02T10:40:00;101449.50;;;9.19;80.38
70544;BME280;58097;48.364;-1.224;2023-02-02T10:43:01;101447.75;;;9.18;80.54
70544;BME280;58097;48.364;-1.224;2023-02-02T10:45:49;101462.41;;;9.18;80.30
70544;BME280;58097;48.364;-1.224;2023-02-02T10:48:18;101460.66;;;9.17;80.79
70544;BME280;58097;48.364;-1.224;2023-02-02T10:50:50;101453.59;;;9.13;81.38
70544;BME280;58097;48.364;-1.224;2023-02-02T10:53:17;101457.72;;;9.08;81.81
70544;BME280;58097;48.364;-1.224;2023-02-02T10:55:48;101464.88;;;9.10;81.85
70544;BME280;58097;48.364;-1.224;2023-02-02T10:58:25;101471.50;;;9.08;82.08
70544;BME280;58097;48.364;-1.224;2023-02-02T11:00:54;101465.75;;;9.11;82.06
70544;BME280;58097;48.364;-1.224;2023-02-02T11:03:25;101466.28;;;9.16;82.29
70544;BME280;58097;48.364;-1.224;2023-02-02T11:05:51;101467.38;;;9.26;82.08
70544;BME280;58097;48.364;-1.224;2023-02-02T11:08:43;101465.69;;;9.36;82.04
70544;BME280;58097;48.364;-1.224;2023-02-02T11:11:37;101467.97;;;9.42;81.40
70544;BME280;58097;48.364;-1.224;2023-02-02T11:16:37;101463.38;;;9.54;81.61
70544;BME280;58097;48.364;-1.224;2023-02-02T11:19:25;101463.69;;;9.62;81.58
70544;BME280;58097;48.364;-1.224;2023-02-02T11:21:54;101459.94;;;9.87;82.17
70544;BME280;58097;48.364;-1.224;2023-02-02T11:24:33;101449.06;;;10.08;81.44
70544;BME280;58097;48.364;-1.224;2023-02-02T11:27:26;101447.03;;;10.22;80.90
70544;BME280;58097;48.364;-1.224;2023-02-02T11:29:57;101443.53;;;10.32;80.83
70544;BME280;58097;48.364;-1.224;2023-02-02T11:32:25;101430.63;;;10.43;80.33
70544;BME280;58097;48.364;-1.224;2023-02-02T11:37:29;101429.84;;;10.64;79.91
70544;BME280;58097;48.364;-1.224;2023-02-02T11:42:45;101423.19;;;10.66;78.12
70544;BME280;58097;48.364;-1.224;2023-02-02T11:45:16;101416.91;;;10.64;77.98
70544;BME280;58097;48.364;-1.224;2023-02-02T11:47:43;101412.66;;;10.60;78.77
70544;BME280;58097;48.364;-1.224;2023-02-02T11:50:17;101416.91;;;10.53;77.88
70544;BME280;58097;48.364;-1.224;2023-02-02T11:52:45;101410.75;;;10.49;78.21
70544;BME280;58097;48.364;-1.224;2023-02-02T11:55:16;101414.03;;;10.43;78.21
70544;BME280;58097;48.364;-1.224;2023-02-02T11:58:14;101406.22;;;10.37;78.26
70544;BME280;58097;48.364;-1.224;2023-02-02T12:00:56;101409.59;;;10.30;78.37
70544;BME280;58097;48.364;-1.224;2023-02-02T12:05:50;101400.94;;;10.23;77.85
70544;BME280;58097;48.364;-1.224;2023-02-02T12:08:16;101399.94;;;10.24;78.78
70544;BME280;58097;48.364;-1.224;2023-02-02T12:10:48;101398.78;;;10.27;78.67
70544;BME280;58097;48.364;-1.224;2023-02-02T12:13:34;101393.16;;;10.28;78.86
70544;BME280;58097;48.364;-1.224;2023-02-02T12:21:06;101391.63;;;10.24;77.81
70544;BME280;58097;48.364;-1.224;2023-02-02T12:23:52;101392.50;;;10.24;78.40
70544;BME280;58097;48.364;-1.224;2023-02-02T12:26:29;101401.31;;;10.30;78.49
70544;BME280;58097;48.364;-1.224;2023-02-02T12:37:11;101388.63;;;10.38;78.01
70544;BME280;58097;48.364;-1.224;2023-02-02T12:43:01;101384.22;;;10.36;77.61
70544;BME280;58097;48.364;-1.224;2023-02-02T12:45:28;101381.22;;;10.39;77.11
70544;BME280;58097;48.364;-1.224;2023-02-02T12:53:37;101386.38;;;10.32;77.13
70544;BME280;58097;48.364;-1.224;2023-02-02T12:56:24;101385.22;;;10.23;77.18
70544;BME280;58097;48.364;-1.224;2023-02-02T12:59:13;101377.94;;;10.22;77.30
70544;BME280;58097;48.364;-1.224;2023-02-02T13:05:31;101371.59;;;10.09;77.31
70544;BME280;58097;48.364;-1.224;2023-02-02T13:07:51;101374.84;;;10.03;77.29
70544;BME280;58097;48.364;-1.224;2023-02-02T13:10:25;101375.34;;;9.97;76.96
70544;BME280;58097;48.364;-1.224;2023-02-02T13:13:12;101369.31;;;9.92;77.35
70544;BME280;58097;48.364;-1.224;2023-02-02T13:15:45;101367.16;;;9.84;77.23
70544;BME280;58097;48.364;-1.224;2023-02-02T13:18:28;101372.03;;;9.81;77.44
70544;BME280;58097;48.364;-1.224;2023-02-02T13:21:02;101374.28;;;9.76;77.63
70544;BME280;58097;48.364;-1.224;2023-02-02T13:23:33;101371.00;;;9.71;77.62
70544;BME280;58097;48.364;-1.224;2023-02-02T13:26:06;101372.00;;;9.70;77.97
70544;BME280;58097;48.364;-1.224;2023-02-02T13:28:39;101369.59;;;9.65;77.49
70544;BME280;58097;48.364;-1.224;2023-02-02T13:31:14;101369.47;;;9.67;78.10
70544;BME280;58097;48.364;-1.224;2023-02-02T13:33:43;101376.53;;;9.71;78.16
70544;BME280;58097;48.364;-1.224;2023-02-02T13:36:25;101366.22;;;9.73;78.24
70544;BME280;58097;48.364;-1.224;2023-02-02T13:38:56;101364.00;;;9.78;78.50
70544;BME280;58097;48.364;-1.224;2023-02-02T13:41:24;101367.56;;;9.91;78.70
70544;BME280;58097;48.364;-1.224;2023-02-02T13:44:03;101363.81;;;10.03;78.39
70544;BME280;58097;48.364;-1.224;2023-02-02T13:46:58;101372.59;;;10.08;78.09
70544;BME280;58097;48.364;-1.224;2023-02-02T13:49:36;101364.84;;;10.13;78.34
70544;BME280;58097;48.364;-1.224;2023-02-02T14:00:27;101362.84;;;10.15;77.21
70544;BME280;58097;48.364;-1.224;2023-02-02T14:03:00;101355.31;;;10.17;77.32
70544;BME280;58097;48.364;-1.224;2023-02-02T14:08:06;101358.81;;;10.19;77.32
70544;BME280;58097;48.364;-1.224;2023-02-02T14:26:48;101369.00;;;10.19;77.15
70544;BME280;58097;48.364;-1.224;2023-02-02T14:45:31;101371.13;;;10.15;76.76
70544;BME280;58097;48.364;-1.224;2023-02-02T14:56:20;101375.53;;;10.18;76.44
70544;BME280;58097;48.364;-1.224;2023-02-02T15:20:32;101386.44;;;10.19;75.79
70544;BME280;58097;48.364;-1.224;2023-02-02T15:23:24;101390.47;;;10.15;75.28
70544;BME280;58097;48.364;-1.224;2023-02-02T15:28:56;101400.84;;;10.12;75.16